UAL730 KMCO-TJBQ
Flight info
| Callsign | UAL730 |
|---|---|
| Flight time | N/A |
| Altitude | 37000 |
| Route | DDANY3 VALKA DCT TRV DCT ZFP DCT HAGIT Y421 MEEGL DCT BQN |
| Aircraft | A320/M-SDE3FGHIRWY/LB1 |
Departure
| Time | 2026-05-01 15:10 |
|---|---|
| Airport | Orlando International Airport (KMCO) |
Arrival
| Time | N/A |
|---|---|
| Airport | Rafael Hernández International Airport (TJBQ) |
| Time | Latitude | Longitude | Altitude | Speed | Heading |
|---|---|---|---|---|---|
| 2026-05-01 14:38 | 28.42824 | -81.31624 | 102 ft | 0 kts | 87° |
| 2026-05-01 14:59 | 28.42823 | -81.31640 | 102 ft | 4 kts | 88° |
| 2026-05-01 14:59 | 28.42821 | -81.31669 | 102 ft | 4 kts | 62° |
| 2026-05-01 15:00 | 28.42814 | -81.31679 | 102 ft | 0 kts | 347° |
| 2026-05-01 15:02 | 28.42819 | -81.31680 | 102 ft | 2 kts | 347° |
| 2026-05-01 15:02 | 28.42830 | -81.31683 | 102 ft | 3 kts | 347° |
| 2026-05-01 15:03 | 28.42870 | -81.31693 | 102 ft | 6 kts | 347° |
| 2026-05-01 15:03 | 28.42913 | -81.31711 | 102 ft | 8 kts | 330° |
| 2026-05-01 15:03 | 28.42952 | -81.31758 | 102 ft | 9 kts | 305° |
| 2026-05-01 15:03 | 28.42989 | -81.31818 | 102 ft | 10 kts | 304° |
| 2026-05-01 15:04 | 28.43031 | -81.31892 | 102 ft | 12 kts | 302° |
| 2026-05-01 15:04 | 28.43082 | -81.31976 | 101 ft | 14 kts | 320° |
| 2026-05-01 15:04 | 28.43182 | -81.31995 | 101 ft | 16 kts | 0° |
| 2026-05-01 15:04 | 28.43272 | -81.31997 | 100 ft | 13 kts | 359° |
| 2026-05-01 15:05 | 28.43367 | -81.31998 | 101 ft | 15 kts | 359° |
| 2026-05-01 15:05 | 28.43471 | -81.31999 | 102 ft | 15 kts | 359° |
| 2026-05-01 15:05 | 28.43578 | -81.32000 | 105 ft | 16 kts | 359° |
| 2026-05-01 15:05 | 28.43690 | -81.32002 | 107 ft | 17 kts | 359° |
| 2026-05-01 15:06 | 28.43782 | -81.32002 | 108 ft | 11 kts | 360° |
| 2026-05-01 15:06 | 28.43859 | -81.32003 | 108 ft | 11 kts | 360° |
| 2026-05-01 15:06 | 28.43941 | -81.32003 | 110 ft | 12 kts | 360° |
| 2026-05-01 15:06 | 28.44032 | -81.32005 | 111 ft | 14 kts | 358° |
| 2026-05-01 15:07 | 28.44140 | -81.32009 | 108 ft | 17 kts | 3° |
| 2026-05-01 15:07 | 28.44256 | -81.32007 | 108 ft | 17 kts | 360° |
| 2026-05-01 15:07 | 28.44381 | -81.32007 | 107 ft | 19 kts | 360° |
| 2026-05-01 15:07 | 28.44524 | -81.32008 | 103 ft | 22 kts | 359° |
| 2026-05-01 15:08 | 28.44630 | -81.32010 | 102 ft | 15 kts | 359° |
| 2026-05-01 15:08 | 28.44731 | -81.32012 | 101 ft | 14 kts | 359° |
| 2026-05-01 15:08 | 28.44818 | -81.32045 | 100 ft | 15 kts | 299° |
| 2026-05-01 15:08 | 28.44823 | -81.32156 | 99 ft | 12 kts | 271° |
| 2026-05-01 15:09 | 28.44782 | -81.32226 | 100 ft | 16 kts | 193° |
| 2026-05-01 15:09 | 28.44427 | -81.32228 | 105 ft | 85 kts | 179° |
| 2026-05-01 15:09 | 28.43658 | -81.32213 | 108 ft | 137 kts | 179° |
| 2026-05-01 15:09 | 28.42563 | -81.32206 | 195 ft | 170 kts | 180° |
| 2026-05-01 15:10 | 28.41402 | -81.32222 | 840 ft | 165 kts | 179° |
| 2026-05-01 15:10 | 28.39149 | -81.31831 | 2073 ft | 164 kts | 148° |
| 2026-05-01 15:10 | 28.38255 | -81.30988 | 2418 ft | 179 kts | 130° |
| 2026-05-01 15:11 | 28.37368 | -81.29868 | 2674 ft | 203 kts | 130° |
| 2026-05-01 15:11 | 28.35227 | -81.27216 | 3484 ft | 246 kts | 131° |
| 2026-05-01 15:11 | 28.34046 | -81.25767 | 4315 ft | 252 kts | 131° |
| 2026-05-01 15:12 | 28.33067 | -81.24133 | 5138 ft | 257 kts | 111° |
| 2026-05-01 15:12 | 28.32407 | -81.20085 | 6846 ft | 265 kts | 99° |
| 2026-05-01 15:12 | 28.32139 | -81.17998 | 7665 ft | 269 kts | 99° |
| 2026-05-01 15:13 | 28.31303 | -81.11511 | 9917 ft | 284 kts | 99° |
| 2026-05-01 15:14 | 28.30703 | -81.06930 | 10850 ft | 312 kts | 98° |
| 2026-05-01 15:14 | 28.30373 | -81.04443 | 11011 ft | 334 kts | 98° |
| 2026-05-01 15:14 | 28.29649 | -80.98968 | 11852 ft | 357 kts | 98° |
| 2026-05-01 15:15 | 28.28906 | -80.93356 | 13099 ft | 365 kts | 98° |
| 2026-05-01 15:15 | 28.28132 | -80.87592 | 14333 ft | 372 kts | 100° |
| 2026-05-01 15:16 | 28.26452 | -80.81985 | 15512 ft | 379 kts | 112° |
| 2026-05-01 15:16 | 28.24450 | -80.76439 | 16603 ft | 385 kts | 112° |
| 2026-05-01 15:17 | 28.22138 | -80.70916 | 17723 ft | 391 kts | 125° |
| 2026-05-01 15:18 | 28.15647 | -80.65356 | 19386 ft | 401 kts | 161° |
| 2026-05-01 15:18 | 28.12961 | -80.64429 | 19947 ft | 404 kts | 163° |
| 2026-05-01 15:19 | 28.04801 | -80.61624 | 21425 ft | 415 kts | 162° |
| 2026-05-01 15:19 | 27.99224 | -80.59699 | 22300 ft | 422 kts | 162° |
| 2026-05-01 15:19 | 27.96405 | -80.58724 | 22702 ft | 425 kts | 162° |
| 2026-05-01 15:20 | 27.90703 | -80.56756 | 23476 ft | 431 kts | 162° |
| 2026-05-01 15:20 | 27.87814 | -80.55764 | 23850 ft | 434 kts | 162° |
| 2026-05-01 15:20 | 27.84908 | -80.54773 | 24229 ft | 437 kts | 162° |
| 2026-05-01 15:21 | 27.82019 | -80.53794 | 24603 ft | 440 kts | 162° |
| 2026-05-01 15:21 | 27.79076 | -80.52796 | 24954 ft | 442 kts | 162° |
| 2026-05-01 15:21 | 27.76116 | -80.51789 | 25292 ft | 445 kts | 162° |
| 2026-05-01 15:21 | 27.73139 | -80.50763 | 25610 ft | 447 kts | 160° |
| 2026-05-01 15:22 | 27.67684 | -80.47470 | 26257 ft | 451 kts | 141° |
| 2026-05-01 15:22 | 27.65366 | -80.45078 | 26571 ft | 453 kts | 131° |
| 2026-05-01 15:22 | 27.63397 | -80.42299 | 26874 ft | 455 kts | 126° |
| 2026-05-01 15:23 | 27.61493 | -80.39428 | 27174 ft | 457 kts | 126° |
| 2026-05-01 15:23 | 27.59581 | -80.36551 | 27468 ft | 460 kts | 126° |
| 2026-05-01 15:23 | 27.57652 | -80.33654 | 27756 ft | 463 kts | 127° |
| 2026-05-01 15:23 | 27.55713 | -80.30744 | 28035 ft | 465 kts | 127° |
| 2026-05-01 15:24 | 27.54424 | -80.28810 | 28264 ft | 465 kts | 127° |
| 2026-05-01 15:24 | 27.52477 | -80.25887 | 28663 ft | 465 kts | 127° |
| 2026-05-01 15:24 | 27.50536 | -80.22971 | 29046 ft | 465 kts | 127° |
| 2026-05-01 15:24 | 27.47963 | -80.19113 | 29553 ft | 464 kts | 127° |
| 2026-05-01 15:25 | 27.46649 | -80.17143 | 29808 ft | 465 kts | 127° |
| 2026-05-01 15:25 | 27.44731 | -80.14273 | 30181 ft | 465 kts | 127° |
| 2026-05-01 15:25 | 27.42782 | -80.11364 | 30569 ft | 464 kts | 127° |
| 2026-05-01 15:25 | 27.40831 | -80.08455 | 30972 ft | 463 kts | 127° |
| 2026-05-01 15:26 | 27.38885 | -80.05553 | 31343 ft | 463 kts | 127° |
| 2026-05-01 15:26 | 27.36949 | -80.02665 | 31723 ft | 462 kts | 127° |
| 2026-05-01 15:26 | 27.35035 | -79.99811 | 32121 ft | 462 kts | 127° |
| 2026-05-01 15:26 | 27.33102 | -79.96931 | 32493 ft | 461 kts | 127° |
| 2026-05-01 15:27 | 27.31165 | -79.94047 | 32867 ft | 460 kts | 128° |
| 2026-05-01 15:27 | 27.29227 | -79.91161 | 33245 ft | 459 kts | 128° |
| 2026-05-01 15:27 | 27.27330 | -79.88336 | 33607 ft | 458 kts | 128° |
| 2026-05-01 15:28 | 27.23490 | -79.82625 | 34332 ft | 457 kts | 128° |
| 2026-05-01 15:28 | 27.21566 | -79.79772 | 34685 ft | 456 kts | 128° |
| 2026-05-01 15:28 | 27.19648 | -79.76935 | 35020 ft | 455 kts | 128° |
| 2026-05-01 15:29 | 27.15822 | -79.71263 | 35602 ft | 455 kts | 128° |
| 2026-05-01 15:29 | 27.13935 | -79.68465 | 35879 ft | 455 kts | 128° |
| 2026-05-01 15:29 | 27.10102 | -79.62799 | 36430 ft | 454 kts | 128° |
| 2026-05-01 15:30 | 27.06275 | -79.57150 | 36935 ft | 453 kts | 128° |
| 2026-05-01 15:31 | 26.98627 | -79.45864 | 37303 ft | 455 kts | 128° |
| 2026-05-01 15:31 | 26.94813 | -79.40250 | 37303 ft | 455 kts | 128° |
| 2026-05-01 15:32 | 26.87118 | -79.28963 | 37302 ft | 455 kts | 128° |
| 2026-05-01 15:34 | 26.75578 | -79.12062 | 37312 ft | 456 kts | 128° |